createdAt,value
2022-08-14T00:02:01.423Z,16.38
2022-08-14T00:05:06.174Z,16.60
2022-08-14T00:08:14.037Z,16.75
2022-08-14T00:11:17.368Z,16.82
2022-08-14T00:14:20.608Z,16.87
2022-08-14T00:17:26.777Z,16.93
2022-08-14T00:20:36.002Z,16.91
2022-08-14T00:23:54.056Z,16.90
2022-08-14T00:26:57.066Z,16.65
2022-08-14T00:29:59.975Z,16.61
2022-08-14T00:33:15.066Z,16.51
2022-08-14T00:36:35.993Z,16.47
2022-08-14T00:39:43.072Z,16.50
2022-08-14T00:42:54.839Z,16.50
2022-08-14T00:45:59.271Z,16.63
2022-08-14T00:49:03.031Z,16.74
2022-08-14T00:52:05.869Z,16.78
2022-08-14T00:55:11.074Z,16.43
2022-08-14T00:58:32.778Z,16.24
2022-08-14T01:01:36.994Z,16.39
2022-08-14T01:04:53.559Z,16.53
2022-08-14T01:07:58.574Z,16.50
2022-08-14T01:11:03.614Z,16.63
2022-08-14T01:14:25.236Z,16.64
2022-08-14T01:17:49.230Z,16.68
2022-08-14T01:21:06.549Z,16.57
2022-08-14T01:24:15.347Z,16.52
2022-08-14T01:27:31.871Z,16.32
2022-08-14T01:30:55.902Z,16.53
2022-08-14T01:35:19.760Z,16.42
2022-08-14T01:37:28.875Z,16.38
2022-08-14T01:40:40.981Z,16.37
2022-08-14T01:43:56.708Z,16.30
2022-08-14T01:47:01.848Z,16.27
2022-08-14T01:50:10.305Z,16.01
2022-08-14T01:53:13.637Z,15.87
2022-08-14T01:56:19.567Z,16.13
2022-08-14T01:59:26.785Z,16.06
2022-08-14T02:02:41.152Z,15.90
2022-08-14T02:05:49.620Z,15.90
2022-08-14T02:08:52.941Z,16.00
2022-08-14T02:11:59.253Z,16.01
2022-08-14T02:15:02.127Z,15.95
2022-08-14T02:18:05.139Z,15.92
2022-08-14T02:21:07.907Z,15.94
2022-08-14T02:24:40.037Z,15.94
2022-08-14T02:28:22.232Z,16.15
2022-08-14T02:31:01.038Z,16.14
2022-08-14T02:34:22.496Z,15.99
2022-08-14T02:37:47.609Z,15.87
2022-08-14T02:40:51.273Z,16.05
2022-08-14T02:43:55.391Z,15.98
2022-08-14T02:47:03.920Z,15.82
2022-08-14T02:50:10.580Z,15.79
2022-08-14T02:53:13.460Z,15.90
2022-08-14T02:56:30.190Z,15.52
2022-08-14T02:59:44.516Z,15.42
2022-08-14T03:02:58.546Z,15.35
2022-08-14T03:06:02.346Z,15.47
2022-08-14T03:09:05.786Z,15.55
2022-08-14T03:12:08.941Z,15.46
2022-08-14T03:15:16.653Z,15.41
2022-08-14T03:18:30.682Z,15.35
2022-08-14T03:21:36.405Z,15.55
2022-08-14T03:24:39.347Z,15.56
2022-08-14T03:27:48.488Z,15.46
2022-08-14T03:31:02.960Z,15.42
2022-08-14T03:34:05.727Z,15.40
2022-08-14T03:37:51.008Z,15.23
2022-08-14T03:40:38.187Z,15.37
2022-08-14T03:43:41.209Z,15.50
2022-08-14T03:46:54.437Z,15.54
2022-08-14T03:49:58.303Z,15.64
2022-08-14T03:53:02.129Z,15.66
2022-08-14T03:56:06.070Z,15.68
2022-08-14T03:59:18.029Z,15.63
2022-08-14T04:02:33.002Z,15.65
2022-08-14T04:05:43.259Z,15.58
2022-08-14T04:08:53.283Z,15.59
2022-08-14T04:12:01.944Z,15.66
2022-08-14T04:15:05.906Z,15.80
2022-08-14T04:18:11.886Z,15.88
2022-08-14T04:21:17.117Z,15.85
2022-08-14T04:24:20.073Z,15.92
2022-08-14T04:27:29.426Z,15.96
2022-08-14T04:30:33.368Z,16.00
2022-08-14T04:33:37.741Z,16.08
2022-08-14T04:37:00.928Z,16.11
2022-08-14T04:40:27.760Z,16.09
2022-08-14T04:43:40.162Z,16.14
2022-08-14T04:47:05.395Z,16.15
2022-08-14T04:50:10.656Z,16.15
2022-08-14T04:53:16.375Z,16.15
2022-08-14T04:56:31.476Z,16.13
2022-08-14T04:59:37.400Z,16.17
2022-08-14T05:02:45.839Z,16.23
2022-08-14T05:05:51.697Z,16.23
2022-08-14T05:08:59.894Z,16.21
2022-08-14T05:13:13.282Z,16.21
2022-08-14T05:15:29.492Z,16.24
2022-08-14T05:19:17.631Z,16.26
2022-08-14T05:22:15.692Z,16.29
2022-08-14T05:25:20.708Z,16.27
2022-08-14T05:28:27.030Z,16.31
2022-08-14T05:31:39.690Z,16.33
2022-08-14T05:34:45.518Z,16.33
2022-08-14T05:37:50.132Z,16.45
2022-08-14T05:40:53.135Z,16.56
2022-08-14T05:43:56.789Z,16.63
2022-08-14T05:47:01.078Z,16.81
2022-08-14T05:50:03.893Z,16.90
2022-08-14T05:53:09.235Z,16.99
2022-08-14T05:56:12.297Z,17.09
2022-08-14T05:59:16.648Z,17.26
2022-08-14T06:02:21.798Z,17.36
2022-08-14T06:05:28.890Z,17.46
2022-08-14T06:08:36.546Z,17.57
2022-08-14T06:11:44.629Z,17.59
2022-08-14T06:14:52.703Z,17.68
2022-08-14T06:17:59.267Z,17.77
2022-08-14T06:21:02.840Z,17.85
2022-08-14T06:24:10.574Z,18.00
2022-08-14T06:27:21.635Z,18.10
2022-08-14T06:30:30.285Z,18.27
2022-08-14T06:35:03.715Z,18.42
2022-08-14T06:37:12.894Z,18.68
2022-08-14T06:40:27.984Z,18.74
2022-08-14T06:43:32.459Z,18.88
2022-08-14T06:46:37.259Z,19.06
2022-08-14T06:49:48.512Z,19.20
2022-08-14T06:52:59.676Z,19.42
2022-08-14T06:56:03.884Z,19.64
2022-08-14T06:59:06.742Z,19.74
2022-08-14T07:02:50.766Z,19.98
2022-08-14T07:05:58.425Z,20.25
2022-08-14T07:09:01.637Z,20.39
2022-08-14T07:12:06.193Z,20.52
2022-08-14T07:15:10.361Z,20.80
2022-08-14T07:18:14.875Z,20.97
2022-08-14T07:21:17.851Z,20.89
2022-08-14T07:24:21.751Z,21.11
2022-08-14T07:27:33.414Z,21.25
2022-08-14T07:30:41.999Z,21.37
2022-08-14T07:34:05.553Z,21.50
2022-08-14T07:37:14.783Z,21.74
2022-08-14T07:40:22.243Z,22.04
2022-08-14T07:43:32.164Z,22.32
2022-08-14T07:46:35.119Z,22.35
2022-08-14T07:49:39.898Z,22.60
2022-08-14T07:52:44.483Z,22.84
2022-08-14T07:56:00.195Z,22.91
2022-08-14T07:59:17.832Z,23.21
2022-08-14T08:02:21.863Z,23.44
2022-08-14T08:05:25.914Z,23.54
2022-08-14T08:08:31.245Z,23.67
2022-08-14T08:11:37.525Z,23.83
2022-08-14T08:14:56.015Z,23.90
2022-08-14T08:18:07.448Z,24.06
2022-08-14T08:21:23.009Z,24.14
2022-08-14T08:24:30.040Z,24.26
2022-08-14T08:27:32.884Z,24.39
2022-08-14T08:30:49.466Z,24.41
2022-08-14T08:33:53.829Z,24.49
2022-08-14T08:37:02.717Z,24.52
2022-08-14T08:40:10.187Z,24.66
2022-08-14T08:43:25.186Z,24.67
2022-08-14T08:46:29.842Z,24.69
2022-08-14T08:49:48.464Z,24.84
2022-08-14T08:52:56.045Z,24.94
2022-08-14T08:55:59.354Z,24.93
2022-08-14T08:59:02.733Z,25.05
2022-08-14T09:02:10.289Z,25.46
2022-08-14T09:05:13.425Z,25.25
2022-08-14T09:08:31.075Z,25.38
2022-08-14T09:11:36.252Z,25.30
2022-08-14T09:14:39.978Z,25.43
2022-08-14T09:17:44.709Z,25.47
2022-08-14T09:20:51.907Z,25.59
2022-08-14T09:24:26.799Z,25.79
2022-08-14T09:27:22.729Z,25.84
2022-08-14T09:30:33.148Z,26.11
2022-08-14T09:33:59.419Z,26.11
2022-08-14T09:37:25.887Z,26.17
2022-08-14T09:40:43.718Z,26.24
2022-08-14T09:43:59.581Z,26.04
2022-08-14T09:47:07.458Z,26.16
2022-08-14T09:50:26.858Z,26.23
2022-08-14T09:54:12.694Z,26.58
2022-08-14T09:57:03.370Z,26.62
2022-08-14T10:00:28.296Z,26.60
2022-08-14T10:03:34.692Z,26.59
2022-08-14T10:06:45.364Z,26.89
2022-08-14T10:09:59.671Z,26.98
2022-08-14T10:13:05.420Z,27.01
2022-08-14T10:16:08.714Z,27.08
2022-08-14T10:19:27.581Z,26.92
2022-08-14T10:23:12.880Z,27.29
2022-08-14T10:26:01.882Z,27.27
2022-08-14T10:29:19.803Z,27.35
2022-08-14T10:32:28.652Z,27.44
2022-08-14T10:35:48.187Z,27.50
2022-08-14T10:38:58.852Z,27.58
2022-08-14T10:42:04.501Z,27.55
2022-08-14T10:45:21.874Z,27.46
2022-08-14T10:48:38.173Z,27.03
2022-08-14T10:51:55.435Z,26.90
2022-08-14T10:55:14.079Z,27.17
2022-08-14T10:58:27.777Z,27.49
2022-08-14T11:01:41.548Z,27.27
2022-08-14T11:04:44.700Z,27.12
2022-08-14T11:07:59.706Z,27.12
2022-08-14T11:11:05.917Z,27.51
2022-08-14T11:14:09.781Z,27.57
2022-08-14T11:17:14.120Z,27.53
2022-08-14T11:20:25.678Z,27.68
2022-08-14T11:23:38.406Z,27.53
2022-08-14T11:26:46.059Z,27.28
2022-08-14T11:29:52.830Z,27.49
2022-08-14T11:33:05.359Z,27.98
2022-08-14T11:36:17.908Z,27.96
2022-08-14T11:39:33.820Z,28.04
2022-08-14T11:43:06.326Z,27.76
2022-08-14T11:46:06.568Z,27.89
2022-08-14T11:49:34.858Z,28.11
2022-08-14T11:52:40.445Z,28.39
2022-08-14T11:55:43.491Z,28.29
2022-08-14T11:58:53.044Z,28.30
2022-08-14T12:01:56.231Z,28.10
2022-08-14T12:04:59.115Z,27.93
2022-08-14T12:08:11.893Z,27.84
2022-08-14T12:11:16.949Z,27.65
2022-08-14T12:14:30.252Z,27.62
2022-08-14T12:17:49.701Z,27.63
2022-08-14T12:20:54.563Z,27.58
2022-08-14T12:24:08.546Z,27.76
2022-08-14T12:27:13.104Z,27.81
2022-08-14T12:30:36.005Z,28.02
2022-08-14T12:33:46.931Z,27.87
2022-08-14T12:37:06.273Z,27.84
2022-08-14T12:40:15.660Z,27.74
2022-08-14T12:43:23.536Z,27.83
2022-08-14T12:46:30.618Z,27.74
2022-08-14T12:49:34.257Z,27.79
2022-08-14T12:52:47.424Z,27.92
2022-08-14T12:56:21.490Z,28.43
2022-08-14T12:59:33.181Z,28.36
2022-08-14T13:02:45.884Z,28.34
2022-08-14T13:09:11.081Z,28.74
2022-08-14T13:12:35.106Z,28.74
2022-08-14T13:15:40.523Z,28.78
2022-08-14T13:18:47.000Z,28.81
2022-08-14T13:22:05.474Z,28.86
2022-08-14T13:25:15.784Z,28.78
2022-08-14T13:28:30.265Z,28.51
2022-08-14T13:31:40.835Z,28.98
2022-08-14T13:34:49.446Z,29.03
2022-08-14T13:37:56.669Z,29.28
2022-08-14T13:41:00.327Z,29.51
2022-08-14T13:44:03.373Z,29.58
2022-08-14T13:47:06.996Z,29.49
2022-08-14T13:50:15.734Z,29.96
2022-08-14T13:53:25.158Z,29.77
2022-08-14T13:56:36.339Z,29.69
2022-08-14T13:59:44.657Z,29.38
2022-08-14T14:02:48.679Z,29.40
2022-08-14T14:05:57.051Z,28.68
2022-08-14T14:09:00.334Z,28.57
2022-08-14T14:12:03.993Z,28.51
2022-08-14T14:15:09.680Z,28.89
2022-08-14T14:18:15.409Z,29.37
2022-08-14T14:21:34.523Z,29.25
2022-08-14T14:24:40.215Z,29.33
2022-08-14T14:27:49.657Z,29.07
2022-08-14T14:30:57.428Z,29.06
2022-08-14T14:34:07.585Z,29.25
2022-08-14T14:37:30.558Z,29.20
2022-08-14T14:40:53.622Z,28.66
2022-08-14T14:43:58.978Z,28.48
2022-08-14T14:47:03.055Z,28.72
2022-08-14T14:50:12.792Z,28.63
2022-08-14T14:53:16.977Z,28.64
2022-08-14T14:56:51.688Z,28.56
2022-08-14T14:59:43.920Z,28.52
2022-08-14T15:02:49.772Z,28.25
2022-08-14T15:05:56.291Z,28.17
2022-08-14T15:09:01.490Z,28.13
2022-08-14T15:12:16.241Z,28.07
2022-08-14T15:15:27.847Z,27.90
2022-08-14T15:18:36.736Z,28.14
2022-08-14T15:21:42.384Z,28.24
2022-08-14T15:24:47.000Z,28.36
2022-08-14T15:27:51.105Z,28.35
2022-08-14T15:30:59.209Z,28.37
2022-08-14T15:34:45.929Z,28.52
2022-08-14T15:37:42.340Z,28.61
2022-08-14T15:40:51.494Z,28.53
2022-08-14T15:44:00.074Z,28.51
2022-08-14T15:47:06.938Z,28.41
2022-08-14T15:50:10.845Z,28.33
2022-08-14T15:53:14.521Z,28.18
2022-08-14T15:56:32.914Z,28.15
2022-08-14T16:00:00.415Z,28.00
2022-08-14T16:03:18.008Z,27.91
2022-08-14T16:06:29.748Z,27.78
2022-08-14T16:09:32.871Z,27.77
2022-08-14T16:12:41.511Z,27.73
2022-08-14T16:15:53.395Z,27.68
2022-08-14T16:18:58.229Z,27.58
2022-08-14T16:22:59.053Z,27.73
2022-08-14T16:25:34.560Z,27.56
2022-08-14T16:28:40.094Z,27.45
2022-08-14T16:31:45.076Z,27.52
2022-08-14T16:34:54.990Z,27.64
2022-08-14T16:38:00.147Z,27.62
2022-08-14T16:41:27.512Z,27.53
2022-08-14T16:44:37.806Z,27.58
2022-08-14T16:47:44.343Z,27.63
2022-08-14T16:50:51.101Z,27.46
2022-08-14T16:53:55.070Z,27.42
2022-08-14T16:57:13.419Z,27.35
2022-08-14T17:00:32.866Z,27.21
2022-08-14T17:03:52.971Z,27.08
2022-08-14T17:06:58.778Z,26.96
2022-08-14T17:10:09.671Z,26.89
2022-08-14T17:13:20.265Z,26.83
2022-08-14T17:16:26.013Z,26.76
2022-08-14T17:19:40.268Z,26.67
2022-08-14T17:22:50.035Z,26.71
2022-08-14T17:25:53.033Z,26.50
2022-08-14T17:29:08.889Z,26.57
2022-08-14T17:32:19.266Z,26.55
2022-08-14T17:35:57.419Z,26.51
2022-08-14T17:39:05.918Z,26.40
2022-08-14T17:42:13.277Z,26.39
2022-08-14T17:45:26.659Z,26.33
2022-08-14T17:49:14.194Z,26.27
2022-08-14T17:52:01.863Z,26.22
2022-08-14T17:55:06.189Z,26.16
2022-08-14T17:58:20.527Z,26.17
2022-08-14T18:01:25.923Z,26.10
2022-08-14T18:04:35.017Z,25.94
2022-08-14T18:07:59.266Z,26.00
2022-08-14T18:11:07.444Z,25.93
2022-08-14T18:14:31.361Z,25.91
2022-08-14T18:17:41.210Z,25.66
2022-08-14T18:21:40.623Z,25.70
2022-08-14T18:24:20.337Z,25.53
2022-08-14T18:27:38.326Z,25.41
2022-08-14T18:30:58.843Z,25.32
2022-08-14T18:34:12.232Z,25.29
2022-08-14T18:37:34.173Z,25.18
2022-08-14T18:40:40.164Z,25.08
2022-08-14T18:43:59.142Z,25.05
2022-08-14T18:47:25.574Z,24.91
2022-08-14T18:50:30.746Z,24.89
2022-08-14T18:53:54.531Z,24.86
2022-08-14T18:57:02.091Z,24.90
2022-08-14T19:00:51.107Z,24.87
2022-08-14T19:03:56.186Z,24.72
2022-08-14T19:07:16.544Z,24.71
2022-08-14T19:10:35.268Z,24.66
2022-08-14T19:13:48.409Z,24.36
2022-08-14T19:16:54.397Z,24.16
2022-08-14T19:20:07.375Z,24.03
2022-08-14T19:23:21.467Z,23.92
2022-08-14T19:26:34.007Z,23.42
2022-08-14T19:29:40.143Z,23.07
2022-08-14T19:32:43.258Z,23.18
2022-08-14T19:35:55.892Z,23.05
2022-08-14T19:39:05.978Z,22.83
2022-08-14T19:42:12.762Z,23.11
2022-08-14T19:45:17.448Z,23.25
2022-08-14T19:48:21.633Z,23.35
2022-08-14T19:51:25.825Z,23.30
2022-08-14T19:54:37.913Z,23.10
2022-08-14T19:57:52.445Z,23.16
2022-08-14T20:01:08.687Z,23.08
2022-08-14T20:04:45.159Z,23.19
2022-08-14T20:08:00.677Z,23.17
2022-08-14T20:11:58.632Z,22.95
2022-08-14T20:14:51.640Z,23.05
2022-08-14T20:17:56.657Z,23.15
2022-08-14T20:21:05.031Z,23.04
2022-08-14T20:24:30.934Z,23.14
2022-08-14T20:27:40.039Z,23.08
2022-08-14T20:30:48.653Z,22.95
2022-08-14T20:34:18.946Z,23.03
2022-08-14T20:37:27.635Z,22.73
2022-08-14T20:40:34.594Z,22.52
2022-08-14T20:43:58.624Z,22.39
2022-08-14T20:47:04.154Z,22.17
2022-08-14T20:50:17.003Z,22.35
2022-08-14T20:53:34.560Z,22.37
2022-08-14T20:56:40.753Z,22.24
2022-08-14T20:59:46.568Z,21.98
2022-08-14T21:02:52.264Z,22.01
2022-08-14T21:05:56.755Z,22.05
2022-08-14T21:09:03.578Z,22.05
2022-08-14T21:12:08.268Z,22.15
2022-08-14T21:15:32.128Z,22.17
2022-08-14T21:18:47.604Z,22.19
2022-08-14T21:21:54.746Z,22.22
2022-08-14T21:25:02.378Z,22.25
2022-08-14T21:28:20.943Z,21.92
2022-08-14T21:31:33.052Z,21.94
2022-08-14T21:34:37.643Z,21.77
2022-08-14T21:37:46.038Z,21.68
2022-08-14T21:40:53.153Z,21.53
2022-08-14T21:44:17.427Z,21.40
2022-08-14T21:47:23.632Z,21.36
2022-08-14T21:50:59.877Z,21.27
2022-08-14T21:53:59.211Z,21.09
2022-08-14T21:57:13.651Z,21.03
2022-08-14T22:00:34.698Z,21.08
2022-08-14T22:03:45.017Z,20.94
2022-08-14T22:06:52.264Z,20.80
2022-08-14T22:09:55.817Z,20.83
2022-08-14T22:13:01.210Z,20.96
2022-08-14T22:16:05.543Z,20.85
2022-08-14T22:19:43.467Z,20.69
2022-08-14T22:22:56.022Z,20.56
2022-08-14T22:26:01.674Z,20.45
2022-08-14T22:29:07.271Z,20.31
2022-08-14T22:32:18.835Z,20.34
2022-08-14T22:35:29.909Z,20.33
2022-08-14T22:38:38.837Z,20.21
2022-08-14T22:42:03.929Z,20.17
2022-08-14T22:45:38.019Z,20.18
2022-08-14T22:48:40.934Z,20.20
2022-08-14T22:51:48.222Z,20.24
2022-08-14T22:54:53.922Z,20.25
2022-08-14T22:57:56.775Z,20.22
2022-08-14T23:01:01.582Z,20.20
2022-08-14T23:04:06.289Z,20.21
2022-08-14T23:07:22.009Z,20.25
2022-08-14T23:10:34.005Z,20.27
2022-08-14T23:13:38.992Z,20.31
2022-08-14T23:16:42.624Z,20.36
2022-08-14T23:19:46.829Z,20.32
2022-08-14T23:22:52.750Z,20.33
2022-08-14T23:26:47.234Z,20.24
2022-08-14T23:29:21.077Z,20.30
2022-08-14T23:32:23.975Z,20.26
2022-08-14T23:35:28.647Z,20.32
2022-08-14T23:38:36.142Z,20.12
2022-08-14T23:41:47.124Z,20.07
2022-08-14T23:44:55.725Z,19.98
2022-08-14T23:47:59.392Z,19.86
2022-08-14T23:51:04.454Z,19.89
2022-08-14T23:54:48.117Z,19.89
2022-08-14T23:57:31.972Z,19.80
